Time;durP1;ratioP1;P1;durP2;ratioP2;P2;SDS_P1;SDS_P2;PMS_P1;PMS_P2;Temp;Humidity;BMP_temperature;BMP_pressure;BME280_temperature;BME280_humidity;BME280_pressure;Samples;Min_cycle;Max_cycle;Signal;HPM_P1;HPM_P2
2021/03/10 00:02:03;;;;;;;28.48;24.20;;;;;;;9.27;58.23;100365.69;4955010;28;20039;-71
2021/03/10 00:04:31;;;;;;;29.00;25.10;;;;;;;9.31;57.76;100368.09;4955915;28;20067;-71
2021/03/10 00:06:58;;;;;;;31.15;22.13;;;;;;;9.30;57.76;100371.63;4951284;28;20114;-71
2021/03/10 00:09:24;;;;;;;28.55;23.70;;;;;;;9.42;57.10;100376.28;4955950;28;20063;-71
2021/03/10 00:11:50;;;;;;;32.67;23.42;;;;;;;9.42;56.91;100373.69;4953425;28;20050;-71
2021/03/10 00:14:17;;;;;;;29.13;23.88;;;;;;;9.30;57.72;100374.22;4948913;28;20057;-71
2021/03/10 00:16:43;;;;;;;33.33;25.38;;;;;;;9.30;58.24;100376.81;4947924;28;20054;-71
2021/03/10 00:19:10;;;;;;;30.63;22.98;;;;;;;9.32;58.36;100379.34;4949489;28;20596;-71
2021/03/10 00:21:36;;;;;;;36.53;26.65;;;;;;;9.31;57.53;100375.06;4949822;28;20412;-70
2021/03/10 00:24:03;;;;;;;37.22;27.33;;;;;;;9.35;56.92;100382.66;4949416;28;20510;-71
2021/03/10 00:26:30;;;;;;;37.10;26.88;;;;;;;9.32;57.12;100376.75;4948458;28;20048;-70
2021/03/10 00:28:56;;;;;;;31.70;25.58;;;;;;;9.38;56.80;100385.16;4949390;28;20133;-70
2021/03/10 00:31:22;;;;;;;35.95;26.55;;;;;;;9.30;57.58;100388.97;4948722;28;20121;-70
2021/03/10 00:33:49;;;;;;;33.55;25.83;;;;;;;9.29;57.79;100390.75;4948584;29;20050;-70
2021/03/10 00:36:16;;;;;;;33.65;26.65;;;;;;;9.04;59.48;100392.66;4947502;28;20047;-71
2021/03/10 00:38:42;;;;;;;36.78;28.55;;;;;;;9.03;58.62;100393.59;4947300;28;20047;-70
2021/03/10 00:41:08;;;;;;;33.35;26.60;;;;;;;9.00;58.73;100394.56;4949160;28;20041;-70
2021/03/10 00:43:35;;;;;;;34.58;27.23;;;;;;;9.04;58.82;100396.09;4947924;28;20126;-70
2021/03/10 00:46:02;;;;;;;33.38;24.85;;;;;;;8.99;59.07;100394.59;4947748;28;20047;-70
2021/03/10 00:48:28;;;;;;;36.60;27.35;;;;;;;8.95;58.37;100401.72;4946999;28;20043;-70
2021/03/10 00:50:55;;;;;;;33.22;26.85;;;;;;;8.95;58.74;100401.72;4948258;28;20045;-70
2021/03/10 00:53:21;;;;;;;35.25;26.25;;;;;;;8.93;58.81;100395.72;4948514;28;20070;-71
2021/03/10 00:55:48;;;;;;;34.72;24.98;;;;;;;8.92;58.97;100407.03;4950158;28;20050;-71
2021/03/10 00:58:14;;;;;;;34.28;26.23;;;;;;;8.98;59.10;100411.13;4946332;28;20079;-68
2021/03/10 01:00:41;;;;;;;31.30;25.60;;;;;;;8.97;58.66;100406.84;4948863;28;20121;-68
2021/03/10 01:03:07;;;;;;;32.13;24.90;;;;;;;8.95;58.75;100403.44;4947715;28;20052;-68
2021/03/10 01:05:46;;;;;;;30.42;24.33;;;;;;;8.95;59.32;100416.44;4946990;28;20035;-68
2021/03/10 01:08:12;;;;;;;31.50;26.00;;;;;;;8.90;58.96;100412.28;4948162;28;20050;-68
2021/03/10 01:10:40;;;;;;;37.08;25.85;;;;;;;8.90;59.47;100412.28;4948417;28;20046;-68
2021/03/10 01:13:07;;;;;;;35.05;26.33;;;;;;;9.04;58.90;100411.72;4948831;28;20098;-68
2021/03/10 01:15:34;;;;;;;31.45;25.95;;;;;;;8.93;58.84;100414.75;4949436;29;20134;-68
2021/03/10 01:18:00;;;;;;;36.17;25.50;;;;;;;8.89;59.05;100426.22;4949494;28;20078;-68
2021/03/10 01:20:27;;;;;;;35.28;25.85;;;;;;;8.68;60.26;100431.38;4948063;28;20521;-68
2021/03/10 01:22:53;;;;;;;33.95;26.60;;;;;;;8.60;60.27;100432.53;4948530;28;20497;-67
2021/03/10 01:25:20;;;;;;;34.08;26.65;;;;;;;8.53;60.04;100440.63;4947855;28;20399;-68
2021/03/10 01:27:47;;;;;;;34.10;26.05;;;;;;;8.38;60.73;100435.13;4948034;28;20174;-67
2021/03/10 01:30:15;;;;;;;33.80;27.73;;;;;;;8.36;59.25;100443.84;4947480;28;20097;-68
2021/03/10 01:32:42;;;;;;;52.30;28.65;;;;;;;8.33;60.18;100450.00;4948264;28;20037;-68
2021/03/10 01:35:10;;;;;;;68.70;35.10;;;;;;;8.27;59.66;100454.56;4961947;28;20047;-67
2021/03/10 01:37:37;;;;;;;40.80;29.65;;;;;;;8.17;59.49;100451.47;4946450;28;20521;-67
2021/03/10 01:40:12;;;;;;;37.83;29.70;;;;;;;8.13;59.45;100457.66;4947973;28;20126;-67
2021/03/10 01:42:39;;;;;;;36.58;29.27;;;;;;;8.33;59.11;100455.19;4946941;28;20054;-67
2021/03/10 01:45:07;;;;;;;43.47;29.60;;;;;;;8.22;58.73;100459.94;4946744;28;20035;-67
2021/03/10 01:47:34;;;;;;;40.35;30.38;;;;;;;8.31;57.86;100457.00;4947682;28;20134;-69
2021/03/10 01:50:03;;;;;;;40.10;31.17;;;;;;;8.13;58.78;100455.06;4947482;29;20047;-71
2021/03/10 01:52:29;;;;;;;35.72;29.10;;;;;;;8.21;58.75;100442.66;4947293;28;20126;-70
2021/03/10 01:54:56;;;;;;;34.95;27.77;;;;;;;8.39;58.15;100459.34;4947912;28;20069;-71
2021/03/10 01:57:22;;;;;;;51.03;31.15;;;;;;;8.15;58.68;100455.88;4947348;29;20130;-71
2021/03/10 01:59:49;;;;;;;35.92;30.15;;;;;;;8.48;57.59;100458.16;4948857;28;20071;-70
2021/03/10 02:02:16;;;;;;;35.38;28.20;;;;;;;8.68;56.77;100458.22;4948396;28;20097;-71
2021/03/10 02:04:43;;;;;;;39.13;27.75;;;;;;;8.29;58.12;100458.78;4948026;28;20047;-69
2021/03/10 02:07:33;;;;;;;37.25;29.65;;;;;;;8.21;58.05;100460.84;4947585;28;20130;-73
2021/03/10 02:10:06;;;;;;;37.90;30.77;;;;;;;8.21;58.07;100466.03;4946703;28;20058;-73
2021/03/10 02:13:06;;;;;;;38.15;31.45;;;;;;;8.39;57.45;100467.13;4950734;29;20042;-73
2021/03/10 02:16:01;;;;;;;38.85;29.60;;;;;;;8.22;57.68;100467.72;4951305;29;20035;-73
2021/03/10 02:18:52;;;;;;;41.67;29.80;;;;;;;8.04;58.48;100463.19;4951563;29;20062;-72
2021/03/10 02:21:24;;;;;;;31.58;27.67;;;;;;;8.19;58.07;100456.59;4950282;28;20493;-73
2021/03/10 02:24:10;;;;;;;36.03;29.52;;;;;;;8.08;58.13;100462.19;4951363;28;20074;-72
2021/03/10 02:26:48;;;;;;;35.15;30.42;;;;;;;7.97;58.68;100461.72;4951384;28;20387;-73
2021/03/10 02:29:16;;;;;;;34.28;28.92;;;;;;;7.70;59.58;100463.53;4954225;29;20047;-72
2021/03/10 02:31:49;;;;;;;39.45;30.02;;;;;;;7.93;58.43;100453.19;4952047;28;20517;-72
2021/03/10 02:34:17;;;;;;;43.00;31.73;;;;;;;8.30;57.21;100462.25;4951472;28;20106;-72
2021/03/10 02:36:57;;;;;;;37.53;28.50;;;;;;;8.33;57.20;100464.72;4948996;28;20055;-70
2021/03/10 02:39:24;;;;;;;36.33;28.48;;;;;;;8.47;56.63;100466.81;4950944;28;20498;-70
2021/03/10 02:41:52;;;;;;;37.95;28.35;;;;;;;8.39;56.77;100469.72;4950997;28;20071;-70
2021/03/10 02:44:20;;;;;;;42.10;30.50;;;;;;;8.27;57.27;100468.41;4952218;29;20047;-70
2021/03/10 02:46:46;;;;;;;36.40;30.20;;;;;;;8.08;57.54;100465.63;4951986;28;20045;-70
2021/03/10 02:49:15;;;;;;;37.80;29.42;;;;;;;8.03;57.55;100469.28;4951686;28;20451;-70
2021/03/10 02:51:44;;;;;;;37.45;29.00;;;;;;;7.75;58.33;100467.66;4950832;28;20051;-70
2021/03/10 02:54:13;;;;;;;38.28;30.80;;;;;;;7.72;58.40;100472.94;4951236;28;20048;-68
2021/03/10 02:56:41;;;;;;;35.63;29.77;;;;;;;7.96;57.93;100471.25;4950501;28;20043;-67
2021/03/10 02:59:09;;;;;;;43.95;29.90;;;;;;;7.88;57.96;100466.34;4950636;28;20406;-68
2021/03/10 03:01:36;;;;;;;39.75;29.60;;;;;;;7.92;58.36;100464.47;4965893;28;20039;-68
2021/03/10 03:04:03;;;;;;;36.28;30.48;;;;;;;8.09;56.87;100461.28;4950680;28;20509;-68
2021/03/10 03:06:29;;;;;;;36.17;29.20;;;;;;;7.74;58.37;100476.38;4950424;28;20078;-70
2021/03/10 03:08:56;;;;;;;35.30;29.08;;;;;;;7.73;58.36;100476.41;4950250;28;20036;-70
2021/03/10 03:11:23;;;;;;;38.17;31.75;;;;;;;7.64;58.00;100474.97;4950669;28;20126;-70
2021/03/10 03:13:51;;;;;;;37.65;30.17;;;;;;;7.56;58.64;100479.56;4950440;28;20071;-69
2021/03/10 03:16:18;;;;;;;36.60;29.42;;;;;;;7.55;58.65;100483.06;4949220;28;20055;-69
2021/03/10 03:18:44;;;;;;;39.53;31.00;;;;;;;7.51;58.70;100478.88;4964231;28;20419;-69
2021/03/10 03:21:11;;;;;;;43.15;31.23;;;;;;;7.62;58.43;100484.56;4950131;28;20103;-69
2021/03/10 03:23:40;;;;;;;40.60;32.92;;;;;;;7.41;59.64;100486.13;4950162;28;20178;-69
2021/03/10 03:26:07;;;;;;;35.70;30.30;;;;;;;7.63;58.79;100485.41;4949808;29;20043;-69
2021/03/10 03:28:35;;;;;;;39.78;31.35;;;;;;;7.52;59.12;100483.19;4952005;29;20475;-68
2021/03/10 03:31:03;;;;;;;37.22;29.75;;;;;;;7.32;59.95;100489.88;4950342;28;20138;-68
2021/03/10 03:33:30;;;;;;;34.58;29.65;;;;;;;7.35;60.01;100499.31;4950046;28;20058;-69
2021/03/10 03:35:58;;;;;;;39.53;29.65;;;;;;;7.39;59.88;100510.41;4949812;28;20490;-69
2021/03/10 03:38:26;;;;;;;38.70;28.83;;;;;;;7.36;60.24;100506.19;4950308;28;20047;-68
2021/03/10 03:40:54;;;;;;;43.15;29.98;;;;;;;7.35;60.08;100507.94;4949694;28;20122;-68
2021/03/10 03:43:25;;;;;;;42.08;30.58;;;;;;;7.23;60.79;100505.72;4950170;28;20427;-69
2021/03/10 03:45:52;;;;;;;42.72;29.90;;;;;;;7.37;60.43;100509.63;4949866;28;20054;-69
2021/03/10 03:48:19;;;;;;;41.08;34.40;;;;;;;7.33;59.78;100516.66;4949881;28;20486;-67
2021/03/10 03:50:46;;;;;;;37.58;31.83;;;;;;;7.27;59.99;100511.66;4949794;28;20114;-67
2021/03/10 03:53:13;;;;;;;47.65;33.20;;;;;;;7.21;60.39;100515.31;4948816;29;20450;-76
2021/03/10 03:55:41;;;;;;;37.03;30.10;;;;;;;7.23;60.74;100523.03;4949892;28;20043;-81
2021/03/10 03:58:08;;;;;;;42.28;32.28;;;;;;;7.21;60.65;100524.81;4950492;28;20063;-69
2021/03/10 04:00:34;;;;;;;39.08;31.95;;;;;;;7.28;60.49;100529.75;4954575;29;20071;-67
2021/03/10 04:03:01;;;;;;;38.60;30.10;;;;;;;7.17;60.09;100521.47;4954480;28;20432;-67
2021/03/10 04:05:28;;;;;;;47.58;33.05;;;;;;;7.18;60.20;100515.38;4954499;28;20573;-67
2021/03/10 04:08:07;;;;;;;40.83;31.17;;;;;;;7.15;60.08;100518.09;4952745;28;20138;-67
2021/03/10 04:10:37;;;;;;;39.28;31.30;;;;;;;7.12;60.19;100514.75;4969502;28;20050;-67
2021/03/10 04:13:04;;;;;;;38.88;32.30;;;;;;;7.11;59.83;100513.06;4952994;28;20101;-67
2021/03/10 04:15:32;;;;;;;45.63;34.50;;;;;;;7.07;60.06;100512.28;4954210;28;20043;-65
2021/03/10 04:17:59;;;;;;;42.90;31.60;;;;;;;6.96;59.82;100516.97;4954952;28;20516;-67
2021/03/10 04:20:26;;;;;;;40.67;31.85;;;;;;;7.12;59.20;100522.50;4952037;29;20581;-67
2021/03/10 04:22:53;;;;;;;41.17;32.10;;;;;;;7.10;59.83;100519.97;4955512;28;20110;-68
2021/03/10 04:25:19;;;;;;;42.70;32.38;;;;;;;7.12;59.49;100517.34;4955249;28;20134;-67
2021/03/10 04:27:46;;;;;;;43.30;33.83;;;;;;;7.11;59.35;100521.66;4954665;28;20047;-67
2021/03/10 04:30:13;;;;;;;44.45;33.90;;;;;;;7.05;60.11;100524.47;4954652;28;20043;-68
2021/03/10 04:32:39;;;;;;;39.13;30.95;;;;;;;7.02;60.24;100527.97;4953931;28;20078;-66
2021/03/10 04:35:07;;;;;;;40.65;29.60;;;;;;;7.00;60.17;100534.13;4954469;28;20141;-70
2021/03/10 04:37:34;;;;;;;47.15;33.60;;;;;;;7.03;60.15;100534.00;4954603;28;20071;-69
2021/03/10 04:40:00;;;;;;;42.05;33.13;;;;;;;7.03;59.96;100539.19;4954657;28;20133;-67
2021/03/10 04:42:27;;;;;;;36.88;31.70;;;;;;;6.96;60.75;100548.91;4954897;28;20039;-68
2021/03/10 04:44:53;;;;;;;44.75;33.42;;;;;;;7.06;60.41;100544.28;4954393;28;20118;-67
2021/03/10 04:47:20;;;;;;;41.20;32.50;;;;;;;7.05;60.41;100542.59;4954916;28;20066;-67
2021/03/10 04:49:46;;;;;;;37.70;31.95;;;;;;;6.96;60.43;100553.25;4954941;28;20041;-67
2021/03/10 04:52:16;;;;;;;38.30;30.85;;;;;;;6.92;60.94;100549.88;4954570;28;20517;-67
2021/03/10 04:54:42;;;;;;;41.78;30.67;;;;;;;6.93;61.04;100541.25;4954887;28;20130;-67
2021/03/10 04:57:09;;;;;;;39.03;31.27;;;;;;;6.96;60.88;100551.50;4954720;28;20397;-67
2021/03/10 04:59:35;;;;;;;37.42;29.77;;;;;;;6.78;61.03;100546.88;4954656;28;20516;-67
2021/03/10 05:02:02;;;;;;;39.63;30.65;;;;;;;6.93;60.36;100546.44;4954827;28;20126;-67
2021/03/10 05:04:28;;;;;;;37.03;29.88;;;;;;;6.93;60.25;100548.16;4954781;28;20047;-67
2021/03/10 05:06:55;;;;;;;38.40;30.23;;;;;;;7.03;60.38;100541.78;4953530;28;20058;-67
2021/03/10 05:09:21;;;;;;;33.70;28.30;;;;;;;7.46;58.91;100543.06;4954726;28;20040;-66
2021/03/10 05:11:47;;;;;;;39.85;30.35;;;;;;;7.49;58.56;100536.00;4954717;28;20064;-66
2021/03/10 05:14:14;;;;;;;37.72;28.02;;;;;;;7.54;58.51;100533.25;4954926;28;20418;-67
2021/03/10 05:16:40;;;;;;;46.22;30.35;;;;;;;7.60;58.12;100533.91;4954843;28;20045;-66
2021/03/10 05:19:07;;;;;;;43.20;26.77;;;;;;;7.51;58.28;100546.31;4954546;28;20046;-66
2021/03/10 05:21:33;;;;;;;35.83;27.63;;;;;;;7.74;57.62;100550.78;4954846;28;20142;-69
2021/03/10 05:23:59;;;;;;;35.50;25.23;;;;;;;7.83;57.38;100548.72;4954392;28;20102;-69
2021/03/10 05:26:26;;;;;;;33.83;24.75;;;;;;;7.72;58.00;100553.41;4954812;28;20070;-69
2021/03/10 05:28:52;;;;;;;33.42;25.20;;;;;;;7.73;57.70;100562.91;4954273;28;20118;-69
2021/03/10 05:31:18;;;;;;;31.45;26.27;;;;;;;7.35;58.96;100569.34;4949836;28;20082;-69
2021/03/10 05:33:45;;;;;;;30.13;25.27;;;;;;;7.40;57.72;100570.00;4948046;28;20157;-69
2021/03/10 05:36:11;;;;;;;31.13;25.77;;;;;;;6.60;59.13;100581.91;4947711;28;20126;-69
2021/03/10 05:38:38;;;;;;;38.20;27.45;;;;;;;6.06;61.03;100582.53;4948015;28;20050;-69
2021/03/10 05:41:04;;;;;;;36.53;29.40;;;;;;;6.39;60.71;100585.09;4947790;28;20493;-70
2021/03/10 05:43:32;;;;;;;36.90;27.80;;;;;;;6.40;60.67;100590.25;4947536;28;20102;-69
2021/03/10 05:45:58;;;;;;;41.50;33.15;;;;;;;6.30;61.25;100589.66;4947851;28;20126;-69
2021/03/10 05:48:25;;;;;;;39.42;32.63;;;;;;;6.39;61.57;100596.34;4947459;28;20130;-69
2021/03/10 05:50:51;;;;;;;43.10;32.72;;;;;;;6.36;61.55;100598.16;4948972;29;20043;-69
2021/03/10 05:53:22;;;;;;;42.60;31.33;;;;;;;6.29;62.10;100600.06;4946576;28;20102;-69
2021/03/10 05:55:50;;;;;;;39.63;32.22;;;;;;;6.33;62.43;100595.63;4947543;29;20051;-68
2021/03/10 05:58:16;;;;;;;38.13;31.25;;;;;;;6.41;61.39;100601.47;4951047;28;20039;-69
2021/03/10 06:00:47;;;;;;;39.92;31.13;;;;;;;6.48;61.87;100608.16;4948739;28;20409;-69
2021/03/10 06:03:14;;;;;;;36.75;31.63;;;;;;;6.72;60.98;100604.06;4945003;28;20122;-69
2021/03/10 06:05:42;;;;;;;38.55;31.08;;;;;;;6.93;59.86;100595.66;4948018;28;20059;-69
2021/03/10 06:08:10;;;;;;;40.65;31.08;;;;;;;6.93;59.97;100612.97;4948290;28;20150;-69
2021/03/10 06:10:42;;;;;;;39.85;31.35;;;;;;;6.97;59.89;100606.78;4948354;28;20102;-68
2021/03/10 06:13:19;;;;;;;34.58;28.92;;;;;;;7.00;60.36;100607.53;4947646;28;20047;-69
2021/03/10 06:15:47;;;;;;;40.72;30.73;;;;;;;6.95;60.78;100608.56;4949287;28;20055;-68
2021/03/10 06:18:31;;;;;;;41.70;31.27;;;;;;;7.00;60.73;100606.69;4947807;28;20090;-68
2021/03/10 06:21:10;;;;;;;38.50;30.43;;;;;;;7.03;60.68;100607.47;4948132;28;20491;-68
2021/03/10 06:23:49;;;;;;;39.47;30.52;;;;;;;6.97;61.03;100618.00;4947093;28;20637;-68
2021/03/10 06:26:20;;;;;;;38.15;29.75;;;;;;;7.03;60.85;100616.94;4948063;28;20122;-68
2021/03/10 06:28:47;;;;;;;36.55;28.73;;;;;;;7.08;61.19;100620.25;4948187;28;20063;-67
2021/03/10 06:31:19;;;;;;;38.33;27.80;;;;;;;7.08;61.64;100620.25;4947070;28;20043;-67
2021/03/10 06:34:02;;;;;;;38.67;28.63;;;;;;;7.18;61.55;100621.69;4952561;28;20142;-67
2021/03/10 06:36:31;;;;;;;35.72;27.33;;;;;;;7.29;61.56;100634.34;4953578;28;20047;-67
2021/03/10 06:38:58;;;;;;;36.08;28.75;;;;;;;7.44;61.05;100639.06;4953789;28;20039;-67
2021/03/10 06:41:41;;;;;;;40.05;28.92;;;;;;;7.57;60.96;100634.34;4953972;28;20126;-67
2021/03/10 06:44:18;;;;;;;41.05;29.25;;;;;;;7.69;60.54;100651.28;4953911;28;20051;-66
2021/03/10 06:47:04;;;;;;;37.22;29.65;;;;;;;7.67;61.25;100653.94;4952261;28;20043;-64
2021/03/10 06:49:34;;;;;;;34.28;28.20;;;;;;;7.80;60.63;100651.78;4957542;28;20492;-67
2021/03/10 06:52:00;;;;;;;42.50;27.77;;;;;;;7.76;60.93;100658.81;4953626;28;20051;-67
2021/03/10 06:54:29;;;;;;;49.72;30.10;;;;;;;7.72;61.56;100657.19;4953285;28;20448;-66
2021/03/10 06:57:07;;;;;;;37.47;28.85;;;;;;;7.73;62.11;100665.84;4955434;28;20142;-68
2021/03/10 06:59:43;;;;;;;38.50;29.70;;;;;;;7.74;62.43;100662.34;4954704;28;20134;-67
2021/03/10 07:02:18;;;;;;;34.90;28.77;;;;;;;7.55;62.16;100675.03;4952836;28;20043;-66
2021/03/10 07:04:50;;;;;;;39.58;31.77;;;;;;;7.62;61.79;100673.97;4956491;28;20046;-66
2021/03/10 07:07:17;;;;;;;48.63;29.23;;;;;;;7.67;61.48;100679.88;4953542;28;20134;-67
2021/03/10 07:09:44;;;;;;;43.97;29.77;;;;;;;7.83;61.33;100688.88;4954815;28;20039;-67
2021/03/10 07:12:15;;;;;;;45.00;30.52;;;;;;;7.65;62.14;100693.78;4954817;28;20047;-65
2021/03/10 07:14:42;;;;;;;37.67;31.27;;;;;;;7.53;63.11;100684.63;4954509;28;20074;-68
2021/03/10 07:17:11;;;;;;;36.42;28.13;;;;;;;7.59;63.41;100694.81;4956952;28;20051;-67
2021/03/10 07:19:39;;;;;;;41.28;29.15;;;;;;;7.80;62.65;100696.75;4954007;28;20118;-67
2021/03/10 07:22:39;;;;;;;46.17;29.40;;;;;;;7.92;62.22;100705.03;4955782;28;20087;-67
2021/03/10 07:25:11;;;;;;;42.53;30.48;;;;;;;7.97;62.63;100713.53;4951535;29;20129;-63
2021/03/10 07:27:44;;;;;;;40.67;30.13;;;;;;;8.17;62.21;100718.94;4955646;28;20142;-64
2021/03/10 07:30:11;;;;;;;44.92;32.63;;;;;;;8.33;61.50;100720.13;4954966;28;20051;-66
2021/03/10 07:32:38;;;;;;;39.03;28.90;;;;;;;8.40;61.24;100721.66;4955845;28;20031;-65
2021/03/10 07:35:07;;;;;;;42.58;30.35;;;;;;;8.51;61.24;100723.03;4955262;28;20050;-66
2021/03/10 07:37:35;;;;;;;43.88;31.75;;;;;;;8.60;60.74;100717.53;4955663;28;20470;-64
2021/03/10 07:40:15;;;;;;;47.03;32.47;;;;;;;8.33;61.19;100722.72;4954909;28;20039;-67
2021/03/10 07:42:55;;;;;;;43.05;29.67;;;;;;;8.53;60.86;100726.44;4955551;29;20090;-66
2021/03/10 07:45:41;;;;;;;44.67;29.65;;;;;;;8.67;60.75;100729.41;4954713;28;20046;-65
2021/03/10 07:48:08;;;;;;;40.45;34.55;;;;;;;8.72;61.20;100737.91;4954613;28;20427;-67
2021/03/10 07:50:41;;;;;;;53.75;42.42;;;;;;;8.55;62.34;100735.03;4953887;28;20079;-66
2021/03/10 07:53:08;;;;;;;56.17;41.55;;;;;;;8.62;62.07;100739.13;4952855;28;20102;-66
2021/03/10 07:55:42;;;;;;;53.80;36.20;;;;;;;8.71;61.56;100741.41;4951273;28;20046;-65
2021/03/10 07:58:08;;;;;;;47.25;35.78;;;;;;;8.90;61.52;100746.84;4953001;28;20524;-65
2021/03/10 08:00:37;;;;;;;48.95;33.05;;;;;;;9.19;60.70;100748.38;4955432;28;20057;-64
2021/03/10 08:03:04;;;;;;;38.20;29.40;;;;;;;9.28;59.73;100755.00;4953454;28;20438;-64
2021/03/10 08:05:31;;;;;;;47.53;34.67;;;;;;;9.48;58.40;100749.06;4954259;28;20111;-65
2021/03/10 08:08:11;;;;;;;47.25;33.53;;;;;;;9.77;57.25;100750.56;4950637;28;20071;-63
2021/03/10 08:10:40;;;;;;;43.10;31.70;;;;;;;9.62;56.93;100752.00;4946894;28;20039;-64
2021/03/10 08:13:20;;;;;;;44.47;31.92;;;;;;;9.98;56.85;100762.75;4954076;28;20134;-64
2021/03/10 08:15:48;;;;;;;47.22;32.67;;;;;;;10.79;53.91;100762.06;4953447;28;20154;-64
2021/03/10 08:18:20;;;;;;;49.47;32.75;;;;;;;11.37;50.23;100762.13;4951350;28;20054;-65
2021/03/10 08:20:48;;;;;;;43.35;31.67;;;;;;;11.14;51.22;100762.31;4953652;28;20066;-65
2021/03/10 08:23:14;;;;;;;43.38;32.38;;;;;;;10.36;52.44;100773.44;4953228;28;20134;-64
2021/03/10 08:25:41;;;;;;;42.83;32.92;;;;;;;10.17;53.16;100778.47;4952207;28;20035;-64
2021/03/10 08:28:14;;;;;;;39.72;30.65;;;;;;;10.03;53.37;100778.19;4953158;28;20039;-63
2021/03/10 08:30:42;;;;;;;43.55;30.63;;;;;;;9.88;53.21;100785.69;4954333;28;20094;-63
2021/03/10 08:33:12;;;;;;;40.05;31.52;;;;;;;10.08;53.35;100786.69;4953509;28;20059;-64
2021/03/10 08:35:51;;;;;;;38.38;28.00;;;;;;;10.05;53.82;100786.78;4953308;28;20050;-64
2021/03/10 08:38:18;;;;;;;39.20;31.00;;;;;;;10.10;53.77;100788.31;4953923;28;20055;-64
2021/03/10 08:40:44;;;;;;;42.05;30.45;;;;;;;10.08;54.46;100787.53;4953556;28;20035;-64
2021/03/10 08:43:17;;;;;;;38.95;30.15;;;;;;;10.28;54.68;100789.38;4968373;28;20194;-64
2021/03/10 08:45:44;;;;;;;37.85;31.55;;;;;;;10.74;54.29;100784.88;4953586;28;20399;-64
2021/03/10 08:48:12;;;;;;;39.70;30.42;;;;;;;10.63;52.86;100797.50;4953610;28;20118;-64
2021/03/10 08:50:42;;;;;;;45.13;30.63;;;;;;;10.42;53.58;100799.22;4954001;28;20500;-64
2021/03/10 08:53:11;;;;;;;37.40;31.52;;;;;;;10.37;54.38;100799.41;4967009;28;20055;-64
2021/03/10 08:55:38;;;;;;;43.13;29.50;;;;;;;10.35;53.28;100800.41;4968401;28;20054;-64
2021/03/10 08:58:13;;;;;;;39.13;30.10;;;;;;;10.54;53.51;100795.28;4952820;28;20122;-64
2021/03/10 09:00:41;;;;;;;38.55;28.77;;;;;;;10.78;52.26;100789.06;4952801;28;20043;-64
2021/03/10 09:03:10;;;;;;;41.13;30.65;;;;;;;10.95;52.85;100786.56;4952646;28;20095;-63
2021/03/10 09:05:38;;;;;;;40.55;30.10;;;;;;;10.99;52.28;100788.13;4968066;28;20062;-64
2021/03/10 09:08:11;;;;;;;41.40;31.33;;;;;;;10.82;52.48;100777.59;4967711;28;20055;-63
2021/03/10 09:10:45;;;;;;;40.08;30.23;;;;;;;11.33;51.51;100786.66;4968020;28;20058;-64
2021/03/10 09:13:21;;;;;;;42.85;30.13;;;;;;;11.86;49.14;100795.63;4948931;28;20039;-65
2021/03/10 09:15:49;;;;;;;44.88;31.15;;;;;;;11.65;49.16;100798.25;4966714;28;20047;-64
2021/03/10 09:18:32;;;;;;;37.88;28.45;;;;;;;11.71;48.81;100789.28;4951106;28;20067;-65
2021/03/10 09:20:59;;;;;;;37.65;25.77;;;;;;;12.46;47.26;100785.75;4951679;28;20051;-65
2021/03/10 09:23:28;;;;;;;40.30;28.65;;;;;;;12.56;47.95;100793.06;4950833;28;20082;-64
2021/03/10 09:26:01;;;;;;;34.58;28.88;;;;;;;11.73;48.78;100784.88;4967343;28;20141;-65
2021/03/10 09:28:36;;;;;;;38.55;28.80;;;;;;;11.46;47.97;100787.81;4967268;28;20043;-65
2021/03/10 09:31:16;;;;;;;32.35;24.27;;;;;;;11.43;47.14;100784.47;4966666;28;20050;-65
2021/03/10 09:34:02;;;;;;;35.90;26.52;;;;;;;11.94;47.39;100780.44;4965153;28;20059;-63
2021/03/10 09:36:30;;;;;;;40.67;27.45;;;;;;;11.79;48.81;100774.97;4967534;28;20053;-64
2021/03/10 09:39:05;;;;;;;37.08;28.83;;;;;;;11.55;48.74;100778.69;4951309;28;20047;-65
2021/03/10 09:41:48;;;;;;;33.70;26.50;;;;;;;11.61;46.61;100780.19;4966198;28;20039;-65
2021/03/10 09:44:24;;;;;;;37.08;26.42;;;;;;;11.52;47.00;100782.31;4949582;29;20047;-65
2021/03/10 09:46:50;;;;;;;35.15;24.80;;;;;;;11.61;45.20;100785.41;4966018;28;20075;-65
2021/03/10 09:49:20;;;;;;;36.47;24.10;;;;;;;11.76;45.37;100784.72;4953078;28;20401;-65
2021/03/10 09:51:50;;;;;;;30.20;22.83;;;;;;;11.72;43.63;100783.19;4967590;28;20047;-65
2021/03/10 09:54:20;;;;;;;34.65;22.27;;;;;;;11.74;43.93;100786.56;4966505;28;20050;-65
2021/03/10 09:56:53;;;;;;;32.75;21.45;;;;;;;11.87;42.59;100797.31;4966825;28;20036;-65
2021/03/10 09:59:33;;;;;;;27.95;19.83;;;;;;;12.06;42.94;100796.38;4949979;28;20035;-65
2021/03/10 10:02:07;;;;;;;30.77;22.50;;;;;;;12.26;42.88;100797.19;4967465;28;20494;-66
2021/03/10 10:04:40;;;;;;;30.73;22.27;;;;;;;12.24;42.22;100806.88;4952272;28;20055;-64
2021/03/10 10:07:09;;;;;;;24.75;19.25;;;;;;;12.11;42.10;100793.53;4950362;28;20059;-65
2021/03/10 10:09:52;;;;;;;34.60;20.83;;;;;;;12.30;42.29;100790.88;4966160;28;20039;-65
2021/03/10 10:12:47;;;;;;;32.30;20.90;;;;;;;12.21;42.92;100791.34;4965942;28;20039;-65
2021/03/10 10:15:19;;;;;;;26.52;21.73;;;;;;;12.22;42.88;100793.88;4965188;28;20075;-64
2021/03/10 10:17:49;;;;;;;31.05;22.65;;;;;;;12.32;42.58;100792.50;4949312;28;20043;-66
2021/03/10 10:20:19;;;;;;;32.92;21.67;;;;;;;12.27;42.02;100797.13;4964963;28;20051;-63
2021/03/10 10:22:47;;;;;;;30.60;21.02;;;;;;;11.96;42.33;100799.50;4965186;28;20105;-64
2021/03/10 10:25:17;;;;;;;27.25;20.15;;;;;;;12.17;41.74;100795.88;4965529;28;20051;-65
2021/03/10 10:27:48;;;;;;;29.20;19.38;;;;;;;11.93;41.54;100792.66;4960862;28;20062;-64
2021/03/10 10:30:17;;;;;;;27.38;19.05;;;;;;;12.00;41.41;100788.84;4959257;28;20102;-64
2021/03/10 10:32:46;;;;;;;28.40;19.23;;;;;;;11.97;41.80;100781.13;4947912;28;20051;-65
2021/03/10 10:35:17;;;;;;;28.90;18.63;;;;;;;12.02;41.58;100786.97;4949562;28;20045;-64
2021/03/10 10:37:43;;;;;;;31.17;20.33;;;;;;;12.21;41.69;100770.44;4951963;28;20487;-65
2021/03/10 10:40:18;;;;;;;29.33;19.65;;;;;;;11.86;40.66;100772.09;4952195;29;20409;-64
2021/03/10 10:42:49;;;;;;;28.73;19.35;;;;;;;12.11;40.74;100772.63;4947777;28;20170;-65
2021/03/10 10:45:18;;;;;;;31.42;19.17;;;;;;;12.26;40.96;100763.22;4967158;28;20047;-64
2021/03/10 10:47:45;;;;;;;23.58;18.75;;;;;;;12.23;40.49;100758.13;4953030;28;20043;-65
2021/03/10 10:50:18;;;;;;;26.00;19.73;;;;;;;12.30;40.17;100775.19;4952466;28;20054;-64
2021/03/10 10:52:49;;;;;;;32.53;20.40;;;;;;;12.33;40.64;100764.59;4954125;28;20126;-64
2021/03/10 10:55:19;;;;;;;34.05;20.42;;;;;;;12.31;40.93;100771.69;4951516;28;20130;-64
2021/03/10 10:57:51;;;;;;;29.73;19.50;;;;;;;12.13;41.18;100767.34;4949686;28;20650;-64
2021/03/10 11:00:20;;;;;;;25.95;20.48;;;;;;;12.26;41.56;100764.06;4962204;28;20074;-65
2021/03/10 11:02:49;;;;;;;30.95;20.20;;;;;;;12.15;40.51;100758.50;4962582;28;20535;-73
2021/03/10 11:05:23;;;;;;;28.80;21.25;;;;;;;12.31;40.42;100758.63;4969408;28;20043;-72
2021/03/10 11:07:56;;;;;;;28.08;21.23;;;;;;;12.01;40.37;100767.00;4965275;28;20528;-73
2021/03/10 11:10:24;;;;;;;23.40;17.45;;;;;;;12.09;40.42;100773.63;4960412;28;20091;-73
2021/03/10 11:12:53;;;;;;;25.85;18.35;;;;;;;12.30;40.37;100762.13;4964161;28;20880;-70
2021/03/10 11:15:30;;;;;;;26.88;18.52;;;;;;;12.27;40.12;100762.28;4965454;28;20042;-70
2021/03/10 11:18:19;;;;;;;27.08;18.48;;;;;;;12.41;39.85;100762.47;4953776;28;20141;-71
2021/03/10 11:20:46;;;;;;;26.73;18.70;;;;;;;12.33;40.63;100773.28;4967600;28;20596;-68
2021/03/10 11:23:13;;;;;;;25.58;20.42;;;;;;;12.40;39.51;100768.59;4966900;28;20043;-69
2021/03/10 11:25:39;;;;;;;27.40;18.55;;;;;;;12.54;39.67;100767.94;4947878;28;20452;-69
2021/03/10 11:28:08;;;;;;;23.67;18.08;;;;;;;12.54;40.06;100767.94;4941710;28;20054;-70